sensor_id;sensor_type;location;lat;lon;timestamp;P1;durP1;ratioP1;P2;durP2;ratioP2
27199;SDS011;14714;48.106;11.546;2023-01-15T00:00:00;2.50;;;1.17;;
27199;SDS011;14714;48.106;11.546;2023-01-15T00:02:27;2.15;;;1.33;;
27199;SDS011;14714;48.106;11.546;2023-01-15T00:04:55;2.40;;;1.10;;
27199;SDS011;14714;48.106;11.546;2023-01-15T00:07:24;2.13;;;1.20;;
27199;SDS011;14714;48.106;11.546;2023-01-15T00:09:51;3.58;;;1.40;;
27199;SDS011;14714;48.106;11.546;2023-01-15T00:12:18;3.22;;;1.40;;
27199;SDS011;14714;48.106;11.546;2023-01-15T00:14:44;2.05;;;1.23;;
27199;SDS011;14714;48.106;11.546;2023-01-15T00:17:11;1.38;;;0.98;;
27199;SDS011;14714;48.106;11.546;2023-01-15T00:19:38;1.77;;;1.30;;
27199;SDS011;14714;48.106;11.546;2023-01-15T00:22:05;2.08;;;1.10;;
27199;SDS011;14714;48.106;11.546;2023-01-15T00:24:33;1.83;;;1.15;;
27199;SDS011;14714;48.106;11.546;2023-01-15T00:27:18;1.70;;;1.20;;
27199;SDS011;14714;48.106;11.546;2023-01-15T00:30:03;1.30;;;1.15;;
27199;SDS011;14714;48.106;11.546;2023-01-15T00:32:31;1.30;;;1.05;;
27199;SDS011;14714;48.106;11.546;2023-01-15T00:34:58;1.67;;;1.30;;
27199;SDS011;14714;48.106;11.546;2023-01-15T00:37:25;2.78;;;1.42;;
27199;SDS011;14714;48.106;11.546;2023-01-15T00:39:52;2.13;;;1.33;;
27199;SDS011;14714;48.106;11.546;2023-01-15T00:42:19;1.48;;;1.15;;
27199;SDS011;14714;48.106;11.546;2023-01-15T00:44:46;1.45;;;1.10;;
27199;SDS011;14714;48.106;11.546;2023-01-15T00:47:13;1.52;;;1.20;;
27199;SDS011;14714;48.106;11.546;2023-01-15T00:49:40;2.30;;;1.05;;
27199;SDS011;14714;48.106;11.546;2023-01-15T00:52:08;1.55;;;1.20;;
27199;SDS011;14714;48.106;11.546;2023-01-15T00:54:35;1.98;;;1.33;;
27199;SDS011;14714;48.106;11.546;2023-01-15T00:57:05;3.63;;;2.33;;
27199;SDS011;14714;48.106;11.546;2023-01-15T00:59:32;2.10;;;1.30;;
27199;SDS011;14714;48.106;11.546;2023-01-15T01:01:59;1.10;;;1.00;;
27199;SDS011;14714;48.106;11.546;2023-01-15T01:04:26;1.45;;;1.20;;
27199;SDS011;14714;48.106;11.546;2023-01-15T01:06:53;1.15;;;1.00;;
27199;SDS011;14714;48.106;11.546;2023-01-15T01:09:20;3.63;;;1.50;;
27199;SDS011;14714;48.106;11.546;2023-01-15T01:11:48;2.28;;;1.10;;
27199;SDS011;14714;48.106;11.546;2023-01-15T01:14:15;1.52;;;1.10;;
27199;SDS011;14714;48.106;11.546;2023-01-15T01:16:42;0.98;;;0.90;;
27199;SDS011;14714;48.106;11.546;2023-01-15T01:19:16;1.27;;;1.10;;
27199;SDS011;14714;48.106;11.546;2023-01-15T01:21:45;2.17;;;1.30;;
27199;SDS011;14714;48.106;11.546;2023-01-15T01:24:14;1.73;;;1.00;;
27199;SDS011;14714;48.106;11.546;2023-01-15T01:26:42;1.60;;;1.13;;
27199;SDS011;14714;48.106;11.546;2023-01-15T01:29:18;2.95;;;1.17;;
27199;SDS011;14714;48.106;11.546;2023-01-15T01:31:46;1.85;;;1.13;;
27199;SDS011;14714;48.106;11.546;2023-01-15T01:34:13;1.60;;;1.10;;
27199;SDS011;14714;48.106;11.546;2023-01-15T01:36:41;2.20;;;1.00;;
27199;SDS011;14714;48.106;11.546;2023-01-15T01:39:14;3.53;;;1.20;;
27199;SDS011;14714;48.106;11.546;2023-01-15T01:41:42;1.90;;;1.25;;
27199;SDS011;14714;48.106;11.546;2023-01-15T01:47:00;1.25;;;1.00;;
27199;SDS011;14714;48.106;11.546;2023-01-15T01:49:30;1.40;;;1.00;;
27199;SDS011;14714;48.106;11.546;2023-01-15T01:52:02;1.10;;;1.00;;
27199;SDS011;14714;48.106;11.546;2023-01-15T01:54:33;1.73;;;1.02;;
27199;SDS011;14714;48.106;11.546;2023-01-15T01:57:02;2.13;;;1.00;;
27199;SDS011;14714;48.106;11.546;2023-01-15T01:59:31;1.70;;;1.08;;
27199;SDS011;14714;48.106;11.546;2023-01-15T02:01:59;2.22;;;1.38;;
27199;SDS011;14714;48.106;11.546;2023-01-15T02:04:26;1.08;;;0.95;;
27199;SDS011;14714;48.106;11.546;2023-01-15T02:06:54;1.35;;;1.00;;
27199;SDS011;14714;48.106;11.546;2023-01-15T02:09:23;0.88;;;0.88;;
27199;SDS011;14714;48.106;11.546;2023-01-15T02:11:50;1.70;;;0.90;;
27199;SDS011;14714;48.106;11.546;2023-01-15T02:14:28;1.30;;;0.95;;
27199;SDS011;14714;48.106;11.546;2023-01-15T02:17:09;1.58;;;0.90;;
27199;SDS011;14714;48.106;11.546;2023-01-15T02:27:43;1.05;;;0.90;;
27199;SDS011;14714;48.106;11.546;2023-01-15T02:30:24;1.60;;;1.00;;
27199;SDS011;14714;48.106;11.546;2023-01-15T02:32:59;1.13;;;0.98;;
27199;SDS011;14714;48.106;11.546;2023-01-15T02:35:35;0.90;;;0.90;;
27199;SDS011;14714;48.106;11.546;2023-01-15T02:38:07;1.40;;;0.85;;
27199;SDS011;14714;48.106;11.546;2023-01-15T02:40:37;2.15;;;1.10;;
27199;SDS011;14714;48.106;11.546;2023-01-15T02:43:06;1.00;;;0.80;;
27199;SDS011;14714;48.106;11.546;2023-01-15T02:45:35;1.20;;;1.00;;
27199;SDS011;14714;48.106;11.546;2023-01-15T02:48:10;1.75;;;1.52;;
27199;SDS011;14714;48.106;11.546;2023-01-15T02:50:39;1.38;;;1.00;;
27199;SDS011;14714;48.106;11.546;2023-01-15T02:53:19;1.02;;;0.82;;
27199;SDS011;14714;48.106;11.546;2023-01-15T02:55:51;1.30;;;0.90;;
27199;SDS011;14714;48.106;11.546;2023-01-15T02:58:25;0.88;;;0.80;;
27199;SDS011;14714;48.106;11.546;2023-01-15T03:00:58;1.52;;;0.90;;
27199;SDS011;14714;48.106;11.546;2023-01-15T03:09:03;1.00;;;0.77;;
27199;SDS011;14714;48.106;11.546;2023-01-15T03:11:37;1.08;;;0.90;;
27199;SDS011;14714;48.106;11.546;2023-01-15T03:14:14;0.95;;;0.85;;
27199;SDS011;14714;48.106;11.546;2023-01-15T03:16:51;1.25;;;0.85;;
27199;SDS011;14714;48.106;11.546;2023-01-15T03:27:31;0.82;;;0.73;;
27199;SDS011;14714;48.106;11.546;2023-01-15T03:30:00;3.05;;;0.85;;
27199;SDS011;14714;48.106;11.546;2023-01-15T03:32:33;1.80;;;0.85;;
27199;SDS011;14714;48.106;11.546;2023-01-15T03:35:00;1.25;;;0.90;;
27199;SDS011;14714;48.106;11.546;2023-01-15T03:37:29;2.05;;;1.00;;
27199;SDS011;14714;48.106;11.546;2023-01-15T03:39:57;1.55;;;0.77;;
27199;SDS011;14714;48.106;11.546;2023-01-15T03:42:44;1.48;;;0.82;;
27199;SDS011;14714;48.106;11.546;2023-01-15T03:45:50;2.88;;;0.98;;
27199;SDS011;14714;48.106;11.546;2023-01-15T03:50:55;0.80;;;0.80;;
27199;SDS011;14714;48.106;11.546;2023-01-15T03:53:31;1.20;;;0.98;;
27199;SDS011;14714;48.106;11.546;2023-01-15T03:56:07;1.02;;;0.80;;
27199;SDS011;14714;48.106;11.546;2023-01-15T04:01:26;1.02;;;0.93;;
27199;SDS011;14714;48.106;11.546;2023-01-15T04:03:57;2.35;;;0.98;;
27199;SDS011;14714;48.106;11.546;2023-01-15T04:06:26;2.08;;;0.98;;
27199;SDS011;14714;48.106;11.546;2023-01-15T04:08:57;0.93;;;0.80;;
27199;SDS011;14714;48.106;11.546;2023-01-15T04:11:25;1.75;;;0.95;;
27199;SDS011;14714;48.106;11.546;2023-01-15T04:13:52;1.48;;;1.00;;
27199;SDS011;14714;48.106;11.546;2023-01-15T04:16:23;1.00;;;0.90;;
27199;SDS011;14714;48.106;11.546;2023-01-15T04:18:52;1.35;;;1.20;;
27199;SDS011;14714;48.106;11.546;2023-01-15T04:21:19;1.58;;;0.88;;
27199;SDS011;14714;48.106;11.546;2023-01-15T04:23:46;0.88;;;0.80;;
27199;SDS011;14714;48.106;11.546;2023-01-15T04:26:13;2.22;;;0.85;;
27199;SDS011;14714;48.106;11.546;2023-01-15T04:28:41;0.82;;;0.82;;
27199;SDS011;14714;48.106;11.546;2023-01-15T04:31:08;0.88;;;0.82;;
27199;SDS011;14714;48.106;11.546;2023-01-15T04:33:35;0.80;;;0.80;;
27199;SDS011;14714;48.106;11.546;2023-01-15T04:36:04;1.10;;;0.82;;
27199;SDS011;14714;48.106;11.546;2023-01-15T04:38:31;1.55;;;0.95;;
27199;SDS011;14714;48.106;11.546;2023-01-15T04:41:01;1.40;;;0.70;;
27199;SDS011;14714;48.106;11.546;2023-01-15T04:43:47;2.63;;;1.10;;
27199;SDS011;14714;48.106;11.546;2023-01-15T04:46:34;2.83;;;1.00;;
27199;SDS011;14714;48.106;11.546;2023-01-15T04:49:02;0.90;;;0.90;;
27199;SDS011;14714;48.106;11.546;2023-01-15T04:51:30;1.08;;;0.80;;
27199;SDS011;14714;48.106;11.546;2023-01-15T04:53:56;2.80;;;1.00;;
27199;SDS011;14714;48.106;11.546;2023-01-15T04:56:23;1.23;;;0.90;;
27199;SDS011;14714;48.106;11.546;2023-01-15T04:58:50;2.25;;;1.00;;
27199;SDS011;14714;48.106;11.546;2023-01-15T05:01:17;1.10;;;1.00;;
27199;SDS011;14714;48.106;11.546;2023-01-15T05:03:44;1.55;;;1.08;;
27199;SDS011;14714;48.106;11.546;2023-01-15T05:06:11;2.55;;;0.90;;
27199;SDS011;14714;48.106;11.546;2023-01-15T05:08:39;1.08;;;0.98;;
27199;SDS011;14714;48.106;11.546;2023-01-15T05:11:07;0.88;;;0.77;;
27199;SDS011;14714;48.106;11.546;2023-01-15T05:13:34;1.00;;;0.80;;
27199;SDS011;14714;48.106;11.546;2023-01-15T05:18:33;1.20;;;1.02;;
27199;SDS011;14714;48.106;11.546;2023-01-15T05:21:00;1.60;;;1.08;;
27199;SDS011;14714;48.106;11.546;2023-01-15T05:23:27;1.70;;;1.10;;
27199;SDS011;14714;48.106;11.546;2023-01-15T05:25:54;1.02;;;0.90;;
27199;SDS011;14714;48.106;11.546;2023-01-15T05:28:21;2.10;;;1.30;;
27199;SDS011;14714;48.106;11.546;2023-01-15T05:30:47;2.53;;;1.42;;
27199;SDS011;14714;48.106;11.546;2023-01-15T05:33:14;2.47;;;1.55;;
27199;SDS011;14714;48.106;11.546;2023-01-15T05:35:41;2.28;;;1.73;;
27199;SDS011;14714;48.106;11.546;2023-01-15T05:38:08;4.47;;;1.60;;
27199;SDS011;14714;48.106;11.546;2023-01-15T05:40:34;3.42;;;1.80;;
27199;SDS011;14714;48.106;11.546;2023-01-15T05:43:01;4.82;;;1.70;;
27199;SDS011;14714;48.106;11.546;2023-01-15T05:45:28;2.08;;;1.52;;
27199;SDS011;14714;48.106;11.546;2023-01-15T05:47:55;2.28;;;1.40;;
27199;SDS011;14714;48.106;11.546;2023-01-15T05:50:21;2.83;;;1.25;;
27199;SDS011;14714;48.106;11.546;2023-01-15T05:52:48;0.70;;;0.70;;
27199;SDS011;14714;48.106;11.546;2023-01-15T05:55:15;1.02;;;0.80;;
27199;SDS011;14714;48.106;11.546;2023-01-15T05:57:42;0.60;;;0.60;;
27199;SDS011;14714;48.106;11.546;2023-01-15T06:00:08;1.15;;;0.57;;
27199;SDS011;14714;48.106;11.546;2023-01-15T06:02:36;0.57;;;0.57;;
27199;SDS011;14714;48.106;11.546;2023-01-15T06:05:02;0.60;;;0.60;;
27199;SDS011;14714;48.106;11.546;2023-01-15T06:07:30;0.40;;;0.40;;
27199;SDS011;14714;48.106;11.546;2023-01-15T06:09:57;0.30;;;0.30;;
27199;SDS011;14714;48.106;11.546;2023-01-15T06:12:24;0.40;;;0.40;;
27199;SDS011;14714;48.106;11.546;2023-01-15T06:14:51;0.95;;;0.90;;
27199;SDS011;14714;48.106;11.546;2023-01-15T06:17:17;0.80;;;0.80;;
27199;SDS011;14714;48.106;11.546;2023-01-15T06:19:44;1.10;;;1.00;;
27199;SDS011;14714;48.106;11.546;2023-01-15T06:22:11;1.20;;;0.75;;
27199;SDS011;14714;48.106;11.546;2023-01-15T06:24:37;1.38;;;0.90;;
27199;SDS011;14714;48.106;11.546;2023-01-15T06:27:04;2.30;;;0.95;;
27199;SDS011;14714;48.106;11.546;2023-01-15T06:29:31;0.50;;;0.50;;
27199;SDS011;14714;48.106;11.546;2023-01-15T06:31:58;0.30;;;0.30;;
27199;SDS011;14714;48.106;11.546;2023-01-15T06:34:24;0.32;;;0.32;;
27199;SDS011;14714;48.106;11.546;2023-01-15T06:36:51;0.60;;;0.35;;
27199;SDS011;14714;48.106;11.546;2023-01-15T06:39:18;0.30;;;0.30;;
27199;SDS011;14714;48.106;11.546;2023-01-15T06:41:45;0.30;;;0.30;;
27199;SDS011;14714;48.106;11.546;2023-01-15T06:44:30;0.50;;;0.50;;
27199;SDS011;14714;48.106;11.546;2023-01-15T06:47:18;0.80;;;0.30;;
27199;SDS011;14714;48.106;11.546;2023-01-15T06:49:51;0.73;;;0.35;;
27199;SDS011;14714;48.106;11.546;2023-01-15T06:52:21;0.30;;;0.30;;
27199;SDS011;14714;48.106;11.546;2023-01-15T06:54:48;0.73;;;0.40;;
27199;SDS011;14714;48.106;11.546;2023-01-15T06:57:15;0.25;;;0.22;;
27199;SDS011;14714;48.106;11.546;2023-01-15T06:59:44;0.30;;;0.30;;
27199;SDS011;14714;48.106;11.546;2023-01-15T07:02:11;0.38;;;0.30;;
27199;SDS011;14714;48.106;11.546;2023-01-15T07:04:38;0.60;;;0.60;;
27199;SDS011;14714;48.106;11.546;2023-01-15T07:07:04;1.58;;;0.40;;
27199;SDS011;14714;48.106;11.546;2023-01-15T07:09:31;0.30;;;0.30;;
27199;SDS011;14714;48.106;11.546;2023-01-15T07:11:58;0.35;;;0.35;;
27199;SDS011;14714;48.106;11.546;2023-01-15T07:14:25;0.65;;;0.38;;
27199;SDS011;14714;48.106;11.546;2023-01-15T07:16:56;0.30;;;0.30;;
27199;SDS011;14714;48.106;11.546;2023-01-15T07:19:24;2.25;;;0.50;;
27199;SDS011;14714;48.106;11.546;2023-01-15T07:21:52;2.00;;;0.30;;
27199;SDS011;14714;48.106;11.546;2023-01-15T07:24:19;0.40;;;0.40;;
27199;SDS011;14714;48.106;11.546;2023-01-15T07:26:46;1.75;;;0.50;;
27199;SDS011;14714;48.106;11.546;2023-01-15T07:29:13;0.30;;;0.30;;
27199;SDS011;14714;48.106;11.546;2023-01-15T07:31:40;0.50;;;0.50;;
27199;SDS011;14714;48.106;11.546;2023-01-15T07:34:07;0.55;;;0.40;;
27199;SDS011;14714;48.106;11.546;2023-01-15T07:36:34;0.40;;;0.30;;
27199;SDS011;14714;48.106;11.546;2023-01-15T07:39:06;0.30;;;0.30;;
27199;SDS011;14714;48.106;11.546;2023-01-15T07:41:34;0.52;;;0.52;;
27199;SDS011;14714;48.106;11.546;2023-01-15T07:44:19;0.30;;;0.30;;
27199;SDS011;14714;48.106;11.546;2023-01-15T07:47:12;0.47;;;0.40;;
27199;SDS011;14714;48.106;11.546;2023-01-15T07:50:07;0.32;;;0.32;;
27199;SDS011;14714;48.106;11.546;2023-01-15T07:55:03;0.30;;;0.30;;
27199;SDS011;14714;48.106;11.546;2023-01-15T07:57:30;0.45;;;0.45;;
27199;SDS011;14714;48.106;11.546;2023-01-15T07:59:57;0.55;;;0.55;;
27199;SDS011;14714;48.106;11.546;2023-01-15T08:02:24;0.70;;;0.50;;
27199;SDS011;14714;48.106;11.546;2023-01-15T08:04:50;0.50;;;0.30;;
27199;SDS011;14714;48.106;11.546;2023-01-15T08:07:17;0.43;;;0.40;;
27199;SDS011;14714;48.106;11.546;2023-01-15T08:09:44;0.38;;;0.38;;
27199;SDS011;14714;48.106;11.546;2023-01-15T08:12:11;0.45;;;0.30;;
27199;SDS011;14714;48.106;11.546;2023-01-15T08:14:56;0.40;;;0.40;;
27199;SDS011;14714;48.106;11.546;2023-01-15T08:17:39;0.55;;;0.40;;
27199;SDS011;14714;48.106;11.546;2023-01-15T08:20:09;0.30;;;0.30;;
27199;SDS011;14714;48.106;11.546;2023-01-15T08:22:46;0.40;;;0.30;;
27199;SDS011;14714;48.106;11.546;2023-01-15T08:25:14;0.43;;;0.43;;
27199;SDS011;14714;48.106;11.546;2023-01-15T08:27:43;0.57;;;0.40;;
27199;SDS011;14714;48.106;11.546;2023-01-15T08:30:11;0.40;;;0.40;;
27199;SDS011;14714;48.106;11.546;2023-01-15T08:32:40;0.73;;;0.73;;
27199;SDS011;14714;48.106;11.546;2023-01-15T08:35:07;0.77;;;0.60;;
27199;SDS011;14714;48.106;11.546;2023-01-15T08:37:35;1.00;;;0.90;;
27199;SDS011;14714;48.106;11.546;2023-01-15T08:40:02;1.13;;;0.80;;
27199;SDS011;14714;48.106;11.546;2023-01-15T08:42:29;0.50;;;0.50;;
27199;SDS011;14714;48.106;11.546;2023-01-15T08:44:56;1.30;;;0.43;;
27199;SDS011;14714;48.106;11.546;2023-01-15T08:47:23;0.30;;;0.30;;
27199;SDS011;14714;48.106;11.546;2023-01-15T08:49:50;0.68;;;0.50;;
27199;SDS011;14714;48.106;11.546;2023-01-15T08:52:16;1.02;;;0.52;;
27199;SDS011;14714;48.106;11.546;2023-01-15T08:54:43;0.35;;;0.35;;
27199;SDS011;14714;48.106;11.546;2023-01-15T08:57:10;0.60;;;0.40;;
27199;SDS011;14714;48.106;11.546;2023-01-15T08:59:38;0.30;;;0.30;;
27199;SDS011;14714;48.106;11.546;2023-01-15T09:02:11;0.43;;;0.40;;
27199;SDS011;14714;48.106;11.546;2023-01-15T09:04:40;0.40;;;0.40;;
27199;SDS011;14714;48.106;11.546;2023-01-15T09:07:07;2.72;;;0.52;;
27199;SDS011;14714;48.106;11.546;2023-01-15T09:09:33;0.82;;;0.60;;
27199;SDS011;14714;48.106;11.546;2023-01-15T09:12:00;0.30;;;0.30;;
27199;SDS011;14714;48.106;11.546;2023-01-15T09:14:27;0.40;;;0.30;;
27199;SDS011;14714;48.106;11.546;2023-01-15T09:17:14;0.57;;;0.38;;
27199;SDS011;14714;48.106;11.546;2023-01-15T09:19:41;0.40;;;0.40;;
27199;SDS011;14714;48.106;11.546;2023-01-15T09:22:07;0.85;;;0.60;;
27199;SDS011;14714;48.106;11.546;2023-01-15T09:24:34;0.70;;;0.40;;
27199;SDS011;14714;48.106;11.546;2023-01-15T09:27:01;0.30;;;0.30;;
27199;SDS011;14714;48.106;11.546;2023-01-15T09:29:28;0.80;;;0.52;;
27199;SDS011;14714;48.106;11.546;2023-01-15T09:31:54;0.75;;;0.50;;
27199;SDS011;14714;48.106;11.546;2023-01-15T09:34:21;0.60;;;0.47;;
27199;SDS011;14714;48.106;11.546;2023-01-15T09:36:48;0.32;;;0.32;;
27199;SDS011;14714;48.106;11.546;2023-01-15T09:39:16;0.50;;;0.50;;
27199;SDS011;14714;48.106;11.546;2023-01-15T09:47:26;1.30;;;0.80;;
27199;SDS011;14714;48.106;11.546;2023-01-15T09:55:24;1.00;;;0.80;;
27199;SDS011;14714;48.106;11.546;2023-01-15T09:58:07;0.63;;;0.63;;
27199;SDS011;14714;48.106;11.546;2023-01-15T10:00:37;2.92;;;1.00;;
27199;SDS011;14714;48.106;11.546;2023-01-15T10:03:06;0.95;;;0.80;;
27199;SDS011;14714;48.106;11.546;2023-01-15T10:05:47;1.85;;;1.25;;
27199;SDS011;14714;48.106;11.546;2023-01-15T10:08:25;4.03;;;1.00;;
27199;SDS011;14714;48.106;11.546;2023-01-15T10:10:58;1.42;;;0.82;;
27199;SDS011;14714;48.106;11.546;2023-01-15T10:14:13;0.65;;;0.55;;
27199;SDS011;14714;48.106;11.546;2023-01-15T10:17:47;0.47;;;0.43;;
27199;SDS011;14714;48.106;11.546;2023-01-15T10:20:00;0.40;;;0.30;;
27199;SDS011;14714;48.106;11.546;2023-01-15T10:25:13;1.77;;;0.40;;
27199;SDS011;14714;48.106;11.546;2023-01-15T10:27:45;0.45;;;0.45;;
27199;SDS011;14714;48.106;11.546;2023-01-15T10:31:02;1.10;;;0.60;;
27199;SDS011;14714;48.106;11.546;2023-01-15T10:33:25;0.40;;;0.40;;
27199;SDS011;14714;48.106;11.546;2023-01-15T10:35:59;1.05;;;0.40;;
27199;SDS011;14714;48.106;11.546;2023-01-15T10:38:42;0.30;;;0.28;;
27199;SDS011;14714;48.106;11.546;2023-01-15T10:46:35;0.68;;;0.55;;
27199;SDS011;14714;48.106;11.546;2023-01-15T10:49:13;0.52;;;0.45;;
27199;SDS011;14714;48.106;11.546;2023-01-15T10:51:45;0.52;;;0.35;;
27199;SDS011;14714;48.106;11.546;2023-01-15T10:56:55;2.63;;;0.40;;
27199;SDS011;14714;48.106;11.546;2023-01-15T10:59:41;0.52;;;0.47;;
27199;SDS011;14714;48.106;11.546;2023-01-15T11:02:23;0.40;;;0.40;;
27199;SDS011;14714;48.106;11.546;2023-01-15T11:05:02;2.28;;;0.50;;
27199;SDS011;14714;48.106;11.546;2023-01-15T11:07:33;0.60;;;0.60;;
27199;SDS011;14714;48.106;11.546;2023-01-15T11:10:24;0.50;;;0.30;;
27199;SDS011;14714;48.106;11.546;2023-01-15T11:12:55;1.50;;;0.60;;
27199;SDS011;14714;48.106;11.546;2023-01-15T11:15:44;0.70;;;0.50;;
27199;SDS011;14714;48.106;11.546;2023-01-15T11:18:35;0.50;;;0.50;;
27199;SDS011;14714;48.106;11.546;2023-01-15T11:21:23;0.55;;;0.50;;
27199;SDS011;14714;48.106;11.546;2023-01-15T11:23:51;0.77;;;0.60;;
27199;SDS011;14714;48.106;11.546;2023-01-15T11:26:21;1.50;;;0.60;;
27199;SDS011;14714;48.106;11.546;2023-01-15T11:28:53;0.68;;;0.55;;
27199;SDS011;14714;48.106;11.546;2023-01-15T11:31:22;0.60;;;0.50;;
27199;SDS011;14714;48.106;11.546;2023-01-15T11:36:26;0.50;;;0.50;;
27199;SDS011;14714;48.106;11.546;2023-01-15T11:38:54;0.98;;;0.50;;
27199;SDS011;14714;48.106;11.546;2023-01-15T11:44:18;0.70;;;0.70;;
27199;SDS011;14714;48.106;11.546;2023-01-15T11:47:16;0.60;;;0.60;;
27199;SDS011;14714;48.106;11.546;2023-01-15T11:50:12;0.73;;;0.50;;
27199;SDS011;14714;48.106;11.546;2023-01-15T11:53:01;0.73;;;0.60;;
27199;SDS011;14714;48.106;11.546;2023-01-15T11:55:28;0.57;;;0.57;;
27199;SDS011;14714;48.106;11.546;2023-01-15T11:57:55;0.52;;;0.52;;
27199;SDS011;14714;48.106;11.546;2023-01-15T12:00:23;0.45;;;0.45;;
27199;SDS011;14714;48.106;11.546;2023-01-15T12:02:54;0.60;;;0.60;;
27199;SDS011;14714;48.106;11.546;2023-01-15T12:05:29;0.60;;;0.60;;
27199;SDS011;14714;48.106;11.546;2023-01-15T12:08:00;1.65;;;0.50;;
27199;SDS011;14714;48.106;11.546;2023-01-15T12:10:42;0.57;;;0.57;;
27199;SDS011;14714;48.106;11.546;2023-01-15T12:32:36;2.40;;;1.60;;
27199;SDS011;14714;48.106;11.546;2023-01-15T12:40:43;2.00;;;1.17;;
27199;SDS011;14714;48.106;11.546;2023-01-15T12:43:20;1.63;;;1.00;;
27199;SDS011;14714;48.106;11.546;2023-01-15T12:46:13;1.70;;;1.30;;
27199;SDS011;14714;48.106;11.546;2023-01-15T12:48:45;1.45;;;1.10;;
27199;SDS011;14714;48.106;11.546;2023-01-15T12:51:22;0.98;;;0.90;;
27199;SDS011;14714;48.106;11.546;2023-01-15T12:54:00;1.38;;;1.00;;
27199;SDS011;14714;48.106;11.546;2023-01-15T13:01:58;0.65;;;0.65;;
27199;SDS011;14714;48.106;11.546;2023-01-15T13:05:02;1.25;;;0.95;;
27199;SDS011;14714;48.106;11.546;2023-01-15T13:07:54;2.00;;;0.60;;
27199;SDS011;14714;48.106;11.546;2023-01-15T13:10:31;0.73;;;0.70;;
27199;SDS011;14714;48.106;11.546;2023-01-15T13:13:15;0.77;;;0.63;;
27199;SDS011;14714;48.106;11.546;2023-01-15T13:16:08;1.55;;;0.70;;
27199;SDS011;14714;48.106;11.546;2023-01-15T13:18:45;4.13;;;1.23;;
27199;SDS011;14714;48.106;11.546;2023-01-15T13:21:42;1.92;;;1.00;;
27199;SDS011;14714;48.106;11.546;2023-01-15T13:32:47;0.80;;;0.80;;
27199;SDS011;14714;48.106;11.546;2023-01-15T13:38:01;2.60;;;1.00;;
27199;SDS011;14714;48.106;11.546;2023-01-15T13:43:03;0.60;;;0.40;;
27199;SDS011;14714;48.106;11.546;2023-01-15T13:48:14;1.30;;;0.60;;
27199;SDS011;14714;48.106;11.546;2023-01-15T13:53:49;2.20;;;0.85;;
27199;SDS011;14714;48.106;11.546;2023-01-15T13:56:27;0.63;;;0.60;;
27199;SDS011;14714;48.106;11.546;2023-01-15T13:58:57;1.27;;;0.87;;
27199;SDS011;14714;48.106;11.546;2023-01-15T14:06:38;0.60;;;0.60;;
27199;SDS011;14714;48.106;11.546;2023-01-15T14:09:28;1.27;;;0.65;;
27199;SDS011;14714;48.106;11.546;2023-01-15T14:25:50;0.63;;;0.60;;
27199;SDS011;14714;48.106;11.546;2023-01-15T14:28:47;1.13;;;0.93;;
27199;SDS011;14714;48.106;11.546;2023-01-15T14:34:23;0.45;;;0.40;;
27199;SDS011;14714;48.106;11.546;2023-01-15T14:36:57;0.90;;;0.77;;
27199;SDS011;14714;48.106;11.546;2023-01-15T14:39:40;0.70;;;0.70;;
27199;SDS011;14714;48.106;11.546;2023-01-15T14:45:16;0.73;;;0.63;;
27199;SDS011;14714;48.106;11.546;2023-01-15T14:47:47;1.95;;;1.30;;
27199;SDS011;14714;48.106;11.546;2023-01-15T14:53:00;3.25;;;1.30;;
27199;SDS011;14714;48.106;11.546;2023-01-15T15:01:26;1.25;;;1.00;;
27199;SDS011;14714;48.106;11.546;2023-01-15T15:06:50;0.93;;;0.90;;
27199;SDS011;14714;48.106;11.546;2023-01-15T15:09:35;0.75;;;0.75;;
27199;SDS011;14714;48.106;11.546;2023-01-15T15:12:19;1.77;;;1.08;;
27199;SDS011;14714;48.106;11.546;2023-01-15T15:15:11;2.40;;;1.35;;
27199;SDS011;14714;48.106;11.546;2023-01-15T15:24:01;2.20;;;0.77;;
27199;SDS011;14714;48.106;11.546;2023-01-15T15:28:58;2.95;;;1.60;;
27199;SDS011;14714;48.106;11.546;2023-01-15T15:31:26;2.58;;;1.90;;
27199;SDS011;14714;48.106;11.546;2023-01-15T15:36:24;4.72;;;2.50;;
27199;SDS011;14714;48.106;11.546;2023-01-15T15:42:20;1.83;;;1.25;;
27199;SDS011;14714;48.106;11.546;2023-01-15T15:45:17;2.20;;;1.63;;
27199;SDS011;14714;48.106;11.546;2023-01-15T15:48:16;1.23;;;1.13;;
27199;SDS011;14714;48.106;11.546;2023-01-15T15:54:14;2.45;;;1.80;;
27199;SDS011;14714;48.106;11.546;2023-01-15T16:01:59;1.75;;;1.23;;
27199;SDS011;14714;48.106;11.546;2023-01-15T16:04:43;1.98;;;1.15;;
27199;SDS011;14714;48.106;11.546;2023-01-15T16:07:12;2.13;;;1.42;;
27199;SDS011;14714;48.106;11.546;2023-01-15T16:09:40;3.05;;;1.95;;
27199;SDS011;14714;48.106;11.546;2023-01-15T16:12:14;3.30;;;1.25;;
27199;SDS011;14714;48.106;11.546;2023-01-15T16:14:42;2.97;;;1.20;;
27199;SDS011;14714;48.106;11.546;2023-01-15T16:17:10;2.10;;;1.38;;
27199;SDS011;14714;48.106;11.546;2023-01-15T16:19:39;1.83;;;1.00;;
27199;SDS011;14714;48.106;11.546;2023-01-15T16:22:07;0.88;;;0.65;;
27199;SDS011;14714;48.106;11.546;2023-01-15T16:24:38;0.70;;;0.70;;
27199;SDS011;14714;48.106;11.546;2023-01-15T16:27:05;1.35;;;0.75;;
27199;SDS011;14714;48.106;11.546;2023-01-15T16:29:36;0.93;;;0.80;;
27199;SDS011;14714;48.106;11.546;2023-01-15T16:32:10;0.80;;;0.80;;
27199;SDS011;14714;48.106;11.546;2023-01-15T16:34:38;0.98;;;0.60;;
27199;SDS011;14714;48.106;11.546;2023-01-15T16:37:15;0.82;;;0.60;;
27199;SDS011;14714;48.106;11.546;2023-01-15T16:39:50;0.52;;;0.52;;
27199;SDS011;14714;48.106;11.546;2023-01-15T16:42:37;0.80;;;0.70;;
27199;SDS011;14714;48.106;11.546;2023-01-15T16:45:08;1.13;;;1.00;;
27199;SDS011;14714;48.106;11.546;2023-01-15T16:50:34;3.60;;;1.00;;
27199;SDS011;14714;48.106;11.546;2023-01-15T16:53:03;1.20;;;0.70;;
27199;SDS011;14714;48.106;11.546;2023-01-15T17:00:40;1.10;;;0.88;;
27199;SDS011;14714;48.106;11.546;2023-01-15T17:03:10;1.48;;;1.05;;
27199;SDS011;14714;48.106;11.546;2023-01-15T17:05:39;1.45;;;0.93;;
27199;SDS011;14714;48.106;11.546;2023-01-15T17:08:20;1.35;;;0.80;;
27199;SDS011;14714;48.106;11.546;2023-01-15T17:13:20;0.98;;;0.70;;
27199;SDS011;14714;48.106;11.546;2023-01-15T17:15:59;1.20;;;1.10;;
27199;SDS011;14714;48.106;11.546;2023-01-15T17:18:38;1.45;;;0.82;;
27199;SDS011;14714;48.106;11.546;2023-01-15T17:21:05;1.77;;;0.90;;
27199;SDS011;14714;48.106;11.546;2023-01-15T17:26:05;2.03;;;0.90;;
27199;SDS011;14714;48.106;11.546;2023-01-15T17:28:33;2.03;;;0.90;;
27199;SDS011;14714;48.106;11.546;2023-01-15T17:31:00;1.42;;;0.85;;
27199;SDS011;14714;48.106;11.546;2023-01-15T17:33:28;1.92;;;1.00;;
27199;SDS011;14714;48.106;11.546;2023-01-15T17:35:54;3.20;;;1.38;;
27199;SDS011;14714;48.106;11.546;2023-01-15T17:38:25;1.50;;;1.00;;
27199;SDS011;14714;48.106;11.546;2023-01-15T17:40:52;2.63;;;1.30;;
27199;SDS011;14714;48.106;11.546;2023-01-15T17:45:49;1.33;;;0.90;;
27199;SDS011;14714;48.106;11.546;2023-01-15T17:48:16;2.08;;;1.00;;
27199;SDS011;14714;48.106;11.546;2023-01-15T17:50:43;3.28;;;0.93;;
27199;SDS011;14714;48.106;11.546;2023-01-15T17:53:10;3.38;;;1.30;;
27199;SDS011;14714;48.106;11.546;2023-01-15T17:55:37;3.15;;;1.33;;
27199;SDS011;14714;48.106;11.546;2023-01-15T17:58:22;2.38;;;0.88;;
27199;SDS011;14714;48.106;11.546;2023-01-15T18:01:12;1.67;;;1.00;;
27199;SDS011;14714;48.106;11.546;2023-01-15T18:04:04;2.50;;;1.25;;
27199;SDS011;14714;48.106;11.546;2023-01-15T18:06:58;1.25;;;0.75;;
27199;SDS011;14714;48.106;11.546;2023-01-15T18:09:26;2.53;;;1.20;;